createdAt,value
2023-05-12T00:01:34.253Z,77.10
2023-05-12T00:04:14.714Z,77.00
2023-05-12T00:06:43.634Z,77.00
2023-05-12T00:09:12.656Z,76.90
2023-05-12T00:11:41.936Z,76.90
2023-05-12T00:14:11.015Z,76.90
2023-05-12T00:16:41.581Z,76.90
2023-05-12T00:19:11.105Z,76.80
2023-05-12T00:21:41.536Z,76.90
2023-05-12T00:24:10.589Z,77.10
2023-05-12T00:26:39.686Z,77.20
2023-05-12T00:29:09.047Z,77.20
2023-05-12T00:31:39.057Z,77.20
2023-05-12T00:34:10.661Z,77.10
2023-05-12T00:36:40.885Z,77.20
2023-05-12T00:39:10.945Z,77.40
2023-05-12T00:41:40.034Z,77.40
2023-05-12T00:44:09.465Z,77.40
2023-05-12T00:46:39.335Z,77.40
2023-05-12T00:49:10.180Z,77.60
2023-05-12T00:51:40.510Z,77.50
2023-05-12T00:54:09.851Z,77.60
2023-05-12T00:57:17.832Z,77.60
2023-05-12T00:59:55.300Z,77.80
2023-05-12T01:02:24.871Z,77.70
2023-05-12T01:04:55.516Z,77.70
2023-05-12T01:07:26.248Z,77.80
2023-05-12T01:09:56.594Z,78.00
2023-05-12T01:12:26.712Z,77.90
2023-05-12T01:14:58.418Z,77.80
2023-05-12T01:17:33.786Z,77.80
2023-05-12T01:20:07.997Z,77.80
2023-05-12T01:22:38.547Z,77.90
2023-05-12T01:25:11.763Z,77.80
2023-05-12T01:27:44.111Z,77.80
2023-05-12T01:30:17.011Z,77.80
2023-05-12T01:32:46.279Z,77.80
2023-05-12T01:35:15.472Z,77.60
2023-05-12T01:37:49.958Z,77.50
2023-05-12T01:40:19.288Z,77.50
2023-05-12T01:42:50.094Z,77.50
2023-05-12T01:45:20.557Z,77.50
2023-05-12T01:47:50.623Z,77.50
2023-05-12T01:50:20.134Z,77.40
2023-05-12T01:52:49.379Z,77.60
2023-05-12T01:55:20.618Z,77.80
2023-05-12T01:57:59.937Z,77.90
2023-05-12T02:00:29.061Z,78.60
2023-05-12T02:03:00.494Z,77.90
2023-05-12T02:05:30.106Z,78.00
2023-05-12T02:08:18.794Z,77.90
2023-05-12T02:11:12.311Z,77.90
2023-05-12T02:13:44.359Z,77.80
2023-05-12T02:16:13.839Z,77.60
2023-05-12T02:18:43.763Z,77.60
2023-05-12T02:21:13.110Z,77.70
2023-05-12T02:23:42.196Z,77.60
2023-05-12T02:26:11.312Z,77.70
2023-05-12T02:28:41.019Z,77.80
2023-05-12T02:31:11.354Z,77.90
2023-05-12T02:33:40.562Z,77.90
2023-05-12T02:36:10.236Z,77.80
2023-05-12T02:38:40.234Z,77.80
2023-05-12T02:41:10.294Z,77.80
2023-05-12T02:43:39.796Z,77.70
2023-05-12T02:46:08.997Z,77.80
2023-05-12T02:48:39.840Z,77.70
2023-05-12T02:51:09.341Z,77.80
2023-05-12T02:53:41.194Z,77.80
2023-05-12T02:56:10.421Z,77.80
2023-05-12T02:58:39.893Z,77.80
2023-05-12T03:01:11.095Z,77.80
2023-05-12T03:03:43.737Z,77.70
2023-05-12T03:06:13.318Z,77.60
2023-05-12T03:08:42.452Z,77.30
2023-05-12T03:11:11.540Z,77.30
2023-05-12T03:13:41.100Z,78.00
2023-05-12T03:16:10.061Z,77.30
2023-05-12T03:18:39.214Z,77.30
2023-05-12T03:21:09.985Z,77.40
2023-05-12T03:23:39.150Z,77.50
2023-05-12T03:26:08.114Z,77.40
2023-05-12T03:28:37.131Z,77.60
2023-05-12T03:31:06.233Z,77.40
2023-05-12T03:33:35.213Z,77.50
2023-05-12T03:36:04.770Z,77.40
2023-05-12T03:38:35.434Z,77.40
2023-05-12T03:41:05.166Z,77.50
2023-05-12T03:43:35.739Z,78.40
2023-05-12T03:46:05.487Z,77.70
2023-05-12T03:48:34.293Z,77.70
2023-05-12T03:51:03.895Z,77.80
2023-05-12T03:53:34.818Z,77.80
2023-05-12T03:56:05.885Z,78.00
2023-05-12T03:58:34.934Z,78.10
2023-05-12T04:01:04.217Z,78.10
2023-05-12T04:03:33.637Z,78.10
2023-05-12T04:06:04.529Z,78.20
2023-05-12T04:08:35.234Z,78.10
2023-05-12T04:11:04.316Z,78.30
2023-05-12T04:14:46.864Z,78.20
2023-05-12T04:17:19.114Z,78.40
2023-05-12T04:19:48.265Z,78.20
2023-05-12T04:22:17.725Z,78.10
2023-05-12T04:24:48.473Z,78.10
2023-05-12T04:27:21.300Z,78.30
2023-05-12T04:29:50.445Z,78.20
2023-05-12T04:32:19.854Z,78.10
2023-05-12T04:34:49.075Z,78.10
2023-05-12T04:37:18.120Z,78.10
2023-05-12T04:39:48.628Z,78.20
2023-05-12T04:42:17.443Z,78.30
2023-05-12T04:44:47.061Z,78.30
2023-05-12T04:47:16.583Z,78.30
2023-05-12T04:49:45.684Z,78.10
2023-05-12T04:52:16.622Z,78.00
2023-05-12T04:54:45.661Z,78.00
2023-05-12T04:57:16.091Z,78.20
2023-05-12T04:59:45.102Z,78.10
2023-05-12T05:02:14.095Z,78.10
2023-05-12T05:04:43.283Z,78.00
2023-05-12T05:07:12.822Z,77.80
2023-05-12T05:09:41.774Z,77.80
2023-05-12T05:12:11.307Z,78.10
2023-05-12T05:14:41.690Z,78.10
2023-05-12T05:17:12.177Z,78.10
2023-05-12T05:19:54.937Z,78.30
2023-05-12T05:22:27.536Z,78.00
2023-05-12T05:24:57.335Z,77.90
2023-05-12T05:27:26.642Z,77.70
2023-05-12T05:29:57.678Z,77.70
2023-05-12T05:32:27.172Z,77.60
2023-05-12T05:34:56.276Z,77.80
2023-05-12T05:37:25.632Z,77.80
2023-05-12T05:39:54.834Z,77.90
2023-05-12T05:42:24.109Z,78.00
2023-05-12T05:44:53.255Z,78.00
2023-05-12T05:47:24.036Z,77.90
2023-05-12T05:49:53.469Z,77.90
2023-05-12T05:52:23.700Z,77.80
2023-05-12T05:54:53.903Z,77.90
2023-05-12T05:57:24.040Z,77.90
2023-05-12T05:59:53.273Z,78.40
2023-05-12T06:02:24.155Z,78.00
2023-05-12T06:04:53.974Z,78.00
2023-05-12T06:07:23.258Z,78.00
2023-05-12T06:09:53.840Z,78.00
2023-05-12T06:12:23.028Z,78.20
2023-05-12T06:14:52.233Z,78.30
2023-05-12T06:17:22.874Z,78.30
2023-05-12T06:19:52.083Z,78.10
2023-05-12T06:22:21.538Z,77.80
2023-05-12T06:24:50.867Z,77.70
2023-05-12T06:27:20.369Z,77.60
2023-05-12T06:29:49.651Z,77.30
2023-05-12T06:32:19.003Z,77.50
2023-05-12T06:34:49.640Z,77.30
2023-05-12T06:37:19.297Z,77.20
2023-05-12T06:39:48.486Z,77.00
2023-05-12T06:42:17.731Z,77.00
2023-05-12T06:44:52.867Z,76.60
2023-05-12T06:47:23.099Z,76.50
2023-05-12T06:49:53.812Z,76.50
2023-05-12T06:52:23.937Z,76.50
2023-05-12T06:54:53.205Z,76.20
2023-05-12T06:57:22.926Z,76.30
2023-05-12T06:59:52.319Z,76.20
2023-05-12T07:02:21.561Z,75.20
2023-05-12T07:04:50.857Z,74.60
2023-05-12T07:07:21.601Z,73.90
2023-05-12T07:09:58.114Z,74.20
2023-05-12T07:12:27.167Z,74.60
2023-05-12T07:14:56.240Z,75.20
2023-05-12T07:17:25.562Z,75.40
2023-05-12T07:19:54.628Z,75.00
2023-05-12T07:22:25.261Z,73.20
2023-05-12T07:24:54.408Z,73.30
2023-05-12T07:27:23.563Z,73.10
2023-05-12T07:29:52.706Z,73.40
2023-05-12T07:32:21.842Z,72.80
2023-05-12T07:34:51.005Z,72.00
2023-05-12T07:37:20.260Z,71.20
2023-05-12T07:39:50.890Z,71.00
2023-05-12T07:42:20.308Z,70.50
2023-05-12T07:45:23.020Z,70.60
2023-05-12T07:47:52.091Z,70.50
2023-05-12T07:50:21.467Z,69.70
2023-05-12T07:52:51.208Z,69.80
2023-05-12T07:55:23.639Z,69.10
2023-05-12T07:57:53.134Z,68.30
2023-05-12T08:00:22.694Z,67.80
2023-05-12T08:02:51.982Z,67.40
2023-05-12T08:05:21.655Z,68.50
2023-05-12T08:07:50.767Z,67.60
2023-05-12T08:10:21.548Z,67.70
2023-05-12T08:12:50.601Z,65.90
2023-05-12T08:15:19.767Z,64.90
2023-05-12T08:17:49.174Z,65.50
2023-05-12T08:20:18.482Z,64.60
2023-05-12T08:22:48.028Z,64.30
2023-05-12T08:25:18.061Z,63.90
2023-05-12T08:27:48.653Z,62.60
2023-05-12T08:30:18.480Z,61.80
2023-05-12T08:32:47.965Z,63.30
2023-05-12T08:35:17.872Z,62.10
2023-05-12T08:37:47.165Z,60.10
2023-05-12T08:40:20.294Z,60.00
2023-05-12T08:43:01.054Z,61.00
2023-05-12T08:45:31.144Z,59.80
2023-05-12T08:48:01.195Z,60.60
2023-05-12T08:50:33.520Z,60.30
2023-05-12T08:53:05.432Z,59.90
2023-05-12T08:55:36.069Z,59.30
2023-05-12T08:58:09.668Z,59.70
2023-05-12T09:00:40.378Z,59.50
2023-05-12T09:03:09.523Z,59.60
2023-05-12T09:05:38.906Z,59.00
2023-05-12T09:08:10.298Z,58.90
2023-05-12T09:10:40.583Z,59.40
2023-05-12T09:13:17.872Z,58.10
2023-05-12T09:15:49.484Z,58.10
2023-05-12T09:18:18.655Z,59.10
2023-05-12T09:20:47.835Z,59.00
2023-05-12T09:23:18.381Z,58.30
2023-05-12T09:25:48.133Z,58.50
2023-05-12T09:28:19.054Z,58.50
2023-05-12T09:30:48.027Z,58.30
2023-05-12T09:33:17.067Z,57.70
2023-05-12T09:35:47.005Z,57.20
2023-05-12T09:38:16.487Z,57.90
2023-05-12T09:40:47.197Z,57.60
2023-05-12T09:43:22.304Z,58.00
2023-05-12T09:45:51.675Z,57.60
2023-05-12T09:48:21.084Z,57.10
2023-05-12T09:50:52.709Z,57.30
2023-05-12T09:53:23.029Z,57.20
2023-05-12T09:55:52.093Z,57.80
2023-05-12T09:58:23.732Z,57.40
2023-05-12T10:03:29.477Z,57.40
2023-05-12T10:05:59.882Z,57.80
2023-05-12T10:08:36.330Z,57.30
2023-05-12T10:11:06.651Z,56.90
2023-05-12T10:13:37.231Z,57.90
2023-05-12T10:16:08.183Z,57.40
2023-05-12T10:18:38.444Z,57.00
2023-05-12T10:21:11.848Z,57.10
2023-05-12T10:23:45.715Z,57.30
2023-05-12T10:26:20.069Z,56.50
2023-05-12T10:28:51.295Z,57.20
2023-05-12T10:31:22.228Z,57.40
2023-05-12T10:33:58.858Z,56.70
2023-05-12T10:36:28.722Z,57.00
2023-05-12T10:39:05.641Z,57.00
2023-05-12T10:41:36.450Z,57.00
2023-05-12T10:44:06.899Z,56.90
2023-05-12T10:46:35.893Z,56.40
2023-05-12T10:49:08.921Z,56.50
2023-05-12T10:51:49.535Z,56.20
2023-05-12T10:54:22.850Z,55.80
2023-05-12T10:56:53.791Z,55.60
2023-05-12T10:59:26.966Z,56.70
2023-05-12T11:02:05.315Z,55.90
2023-05-12T11:04:42.017Z,56.10
2023-05-12T11:07:14.277Z,55.80
2023-05-12T11:09:55.646Z,55.80
2023-05-12T11:12:29.379Z,55.80
2023-05-12T11:15:01.388Z,56.10
2023-05-12T11:17:30.942Z,56.00
2023-05-12T11:21:25.678Z,56.00
2023-05-12T11:23:55.852Z,56.20
2023-05-12T11:26:24.876Z,55.90
2023-05-12T11:28:57.664Z,56.10
2023-05-12T11:32:47.541Z,56.10
2023-05-12T11:35:20.495Z,55.40
2023-05-12T11:37:49.653Z,55.70
2023-05-12T11:40:19.848Z,55.70
2023-05-12T11:42:52.579Z,55.10
2023-05-12T11:45:23.843Z,55.10
2023-05-12T11:47:53.996Z,54.70
2023-05-12T11:50:26.198Z,55.40
2023-05-12T11:52:55.585Z,55.50
2023-05-12T11:55:25.911Z,55.10
2023-05-12T11:58:00.159Z,55.00
2023-05-12T12:00:45.757Z,55.30
2023-05-12T12:03:16.738Z,54.80
2023-05-12T12:05:59.458Z,54.80
2023-05-12T12:08:28.380Z,54.60
2023-05-12T12:10:57.375Z,54.60
2023-05-12T12:13:27.440Z,55.10
2023-05-12T12:15:56.389Z,54.90
2023-05-12T12:18:25.530Z,54.40
2023-05-12T12:20:56.016Z,54.40
2023-05-12T12:23:24.954Z,54.20
2023-05-12T12:25:54.278Z,54.10
2023-05-12T12:28:23.534Z,54.00
2023-05-12T12:30:52.567Z,54.40
2023-05-12T12:33:21.669Z,54.50
2023-05-12T12:35:50.699Z,54.00
2023-05-12T12:38:21.747Z,54.20
2023-05-12T12:40:51.772Z,53.90
2023-05-12T12:43:21.262Z,53.90
2023-05-12T12:45:51.424Z,53.70
2023-05-12T12:48:20.547Z,54.40
2023-05-12T12:50:49.665Z,54.70
2023-05-12T12:53:20.286Z,54.80
2023-05-12T12:55:49.451Z,54.70
2023-05-12T12:58:18.534Z,53.10
2023-05-12T13:00:47.491Z,53.30
2023-05-12T13:03:19.528Z,53.40
2023-05-12T13:05:49.465Z,53.30
2023-05-12T13:08:21.057Z,53.40
2023-05-12T13:10:50.092Z,53.30
2023-05-12T13:13:19.082Z,53.20
2023-05-12T13:15:48.293Z,53.40
2023-05-12T13:18:17.498Z,52.90
2023-05-12T13:20:46.629Z,52.80
2023-05-12T13:23:15.822Z,52.90
2023-05-12T13:26:05.805Z,52.90
2023-05-12T13:29:15.808Z,52.50
2023-05-12T13:32:24.845Z,53.20
2023-05-12T13:35:33.900Z,53.30
2023-05-12T13:38:42.943Z,53.20
2023-05-12T13:41:36.637Z,52.90
2023-05-12T13:44:05.802Z,52.80
2023-05-12T13:46:34.995Z,53.10
2023-05-12T13:49:04.459Z,53.00
2023-05-12T13:51:33.763Z,53.30
2023-05-12T13:54:02.915Z,52.90
2023-05-12T13:56:32.021Z,52.50
2023-05-12T13:59:02.543Z,52.40
2023-05-12T14:01:32.377Z,51.90
2023-05-12T14:04:01.628Z,52.20
2023-05-12T14:06:32.198Z,52.00
2023-05-12T14:09:01.457Z,52.10
2023-05-12T14:11:30.480Z,52.40
2023-05-12T14:14:00.731Z,52.50
2023-05-12T14:16:31.230Z,52.20
2023-05-12T14:19:00.806Z,52.40
2023-05-12T14:21:29.968Z,52.70
2023-05-12T14:23:59.132Z,52.50
2023-05-12T14:26:28.286Z,52.80
2023-05-12T14:28:57.391Z,52.80
2023-05-12T14:31:26.865Z,53.00
2023-05-12T14:33:57.330Z,53.50
2023-05-12T14:36:26.552Z,53.80
2023-05-12T14:38:56.180Z,53.50
2023-05-12T14:41:25.780Z,53.20
2023-05-12T14:43:54.815Z,53.60
2023-05-12T14:46:24.930Z,53.80
2023-05-12T14:48:54.058Z,53.60
2023-05-12T14:51:24.266Z,53.70
2023-05-12T14:53:53.017Z,53.40
2023-05-12T14:56:22.052Z,53.70
2023-05-12T14:58:51.754Z,53.50
2023-05-12T15:01:20.872Z,53.50
2023-05-12T15:03:50.531Z,54.00
2023-05-12T15:06:19.746Z,53.90
2023-05-12T15:08:49.945Z,53.50
2023-05-12T15:11:19.445Z,53.40
2023-05-12T15:13:48.513Z,53.80
2023-05-12T15:16:17.653Z,53.80
2023-05-12T15:18:46.824Z,53.80
2023-05-12T15:21:16.134Z,53.80
2023-05-12T15:23:45.263Z,54.00
2023-05-12T15:26:32.244Z,54.30
2023-05-12T15:29:03.468Z,54.20
2023-05-12T15:31:32.779Z,53.80
2023-05-12T15:34:02.004Z,53.90
2023-05-12T15:36:32.368Z,54.10
2023-05-12T15:39:03.027Z,54.30
2023-05-12T15:41:33.427Z,54.50
2023-05-12T15:44:02.962Z,54.50
2023-05-12T15:46:32.327Z,54.40
2023-05-12T15:49:01.456Z,54.60
2023-05-12T15:51:31.332Z,54.40
2023-05-12T15:54:01.430Z,54.50
2023-05-12T15:56:30.515Z,54.60
2023-05-12T15:59:01.060Z,54.70
2023-05-12T16:01:30.206Z,54.80
2023-05-12T16:03:59.634Z,54.40
2023-05-12T16:06:28.947Z,54.60
2023-05-12T16:08:58.069Z,55.00
2023-05-12T16:11:28.362Z,54.30
2023-05-12T16:13:58.173Z,54.00
2023-05-12T16:16:28.975Z,54.40
2023-05-12T16:18:58.194Z,53.90
2023-05-12T16:21:27.407Z,53.50
2023-05-12T16:23:56.608Z,53.70
2023-05-12T16:26:26.741Z,53.70
2023-05-12T16:28:55.904Z,53.90
2023-05-12T16:31:25.022Z,53.60
2023-05-12T16:34:41.310Z,53.70
2023-05-12T16:37:11.052Z,53.20
2023-05-12T16:39:40.174Z,53.00
2023-05-12T16:42:09.549Z,53.10
2023-05-12T16:44:38.715Z,53.20
2023-05-12T16:47:08.182Z,52.80
2023-05-12T16:49:38.746Z,52.90
2023-05-12T16:52:09.864Z,52.90
2023-05-12T16:54:42.909Z,53.20
2023-05-12T16:57:11.968Z,52.90
2023-05-12T16:59:41.059Z,52.90
2023-05-12T17:02:10.844Z,53.30
2023-05-12T17:05:03.280Z,53.00
2023-05-12T17:07:35.185Z,52.60
2023-05-12T17:10:04.511Z,52.70
2023-05-12T17:12:36.776Z,52.80
2023-05-12T17:16:19.070Z,52.40
2023-05-12T17:21:21.770Z,52.20
2023-05-12T17:23:50.981Z,52.20
2023-05-12T17:26:20.099Z,52.00
2023-05-12T17:28:49.446Z,52.00
2023-05-12T17:31:18.801Z,52.30
2023-05-12T17:33:48.033Z,52.20
2023-05-12T17:36:18.582Z,52.50
2023-05-12T17:38:51.088Z,52.40
2023-05-12T17:41:20.607Z,52.40
2023-05-12T17:43:49.616Z,52.40
2023-05-12T17:46:18.457Z,52.50
2023-05-12T17:48:47.330Z,52.50
2023-05-12T17:51:16.862Z,52.30
2023-05-12T17:53:46.313Z,52.50
2023-05-12T17:56:16.748Z,52.50
2023-05-12T17:58:45.864Z,52.80
2023-05-12T18:01:14.740Z,52.70
2023-05-12T18:03:43.815Z,53.10
2023-05-12T18:06:14.841Z,53.20
2023-05-12T18:08:43.699Z,53.10
2023-05-12T18:11:12.644Z,53.00
2023-05-12T18:13:43.080Z,53.30
2023-05-12T18:16:21.602Z,53.70
2023-05-12T18:18:56.870Z,53.50
2023-05-12T18:21:26.305Z,53.50
2023-05-12T18:23:55.361Z,53.40
2023-05-12T18:26:24.292Z,53.60
2023-05-12T18:28:54.638Z,53.90
2023-05-12T18:31:24.073Z,53.60
2023-05-12T18:33:53.470Z,53.60
2023-05-12T18:36:22.451Z,53.60
2023-05-12T18:38:51.761Z,53.80
2023-05-12T18:41:20.926Z,53.80
2023-05-12T18:43:50.256Z,53.50
2023-05-12T18:46:20.647Z,53.70
2023-05-12T18:48:49.831Z,53.80
2023-05-12T18:51:18.742Z,53.80
2023-05-12T18:53:47.895Z,54.10
2023-05-12T18:56:16.953Z,54.00
2023-05-12T18:58:46.020Z,54.20
2023-05-12T19:01:17.028Z,54.30
2023-05-12T19:03:47.886Z,54.40
2023-05-12T19:06:17.459Z,54.00
2023-05-12T19:08:46.745Z,54.30
2023-05-12T19:11:15.666Z,54.20
2023-05-12T19:13:45.412Z,54.30
2023-05-12T19:16:14.629Z,54.30
2023-05-12T19:18:43.779Z,54.30
2023-05-12T19:21:14.455Z,54.00
2023-05-12T19:23:43.898Z,54.10
2023-05-12T19:26:13.102Z,54.40
2023-05-12T19:28:42.580Z,54.10
2023-05-12T19:31:12.326Z,54.30
2023-05-12T19:33:41.554Z,54.40
2023-05-12T19:36:11.871Z,54.30
2023-05-12T19:38:44.167Z,54.60
2023-05-12T19:41:13.382Z,54.80
2023-05-12T19:43:42.592Z,54.60
2023-05-12T19:46:11.769Z,54.60
2023-05-12T19:48:41.150Z,54.70
2023-05-12T19:51:10.279Z,55.00
2023-05-12T19:53:39.706Z,54.90
2023-05-12T19:56:10.177Z,55.00
2023-05-12T19:58:39.466Z,55.20
2023-05-12T20:01:23.585Z,55.10
2023-05-12T20:03:53.656Z,55.20
2023-05-12T20:06:24.292Z,55.10
2023-05-12T20:08:53.572Z,54.80
2023-05-12T20:11:24.478Z,54.80
2023-05-12T20:13:53.509Z,55.00
2023-05-12T20:16:22.627Z,54.40
2023-05-12T20:18:51.745Z,54.40
2023-05-12T20:21:21.120Z,54.40
2023-05-12T20:23:50.084Z,54.60
2023-05-12T20:26:22.581Z,54.60
2023-05-12T20:28:53.760Z,54.30
2023-05-12T20:31:22.910Z,54.40
2023-05-12T20:33:51.972Z,54.40
2023-05-12T20:36:21.500Z,54.60
2023-05-12T20:38:53.822Z,54.70
2023-05-12T20:41:22.902Z,54.60
2023-05-12T20:43:53.326Z,54.60
2023-05-12T20:46:22.679Z,54.60
2023-05-12T20:48:51.767Z,54.70
2023-05-12T20:51:21.350Z,55.10
2023-05-12T20:53:50.387Z,55.10
2023-05-12T20:56:19.429Z,55.10
2023-05-12T20:58:48.371Z,55.10
2023-05-12T21:01:18.984Z,54.90
2023-05-12T21:03:48.117Z,55.20
2023-05-12T21:06:17.192Z,55.20
2023-05-12T21:08:46.699Z,55.40
2023-05-12T21:11:16.695Z,55.40
2023-05-12T21:13:46.987Z,55.50
2023-05-12T21:16:16.416Z,55.60
2023-05-12T21:18:46.906Z,55.60
2023-05-12T21:21:16.021Z,55.60
2023-05-12T21:23:45.203Z,55.80
2023-05-12T21:26:14.302Z,55.90
2023-05-12T21:28:43.234Z,55.90
2023-05-12T21:31:12.108Z,55.90
2023-05-12T21:33:43.745Z,55.90
2023-05-12T21:36:14.249Z,55.90
2023-05-12T21:38:43.331Z,55.70
2023-05-12T21:41:12.655Z,55.70
2023-05-12T21:43:42.341Z,55.90
2023-05-12T21:46:11.971Z,55.90
2023-05-12T21:48:41.384Z,56.10
2023-05-12T21:51:10.989Z,56.10
2023-05-12T21:53:41.732Z,56.40
2023-05-12T21:56:11.135Z,56.20
2023-05-12T21:58:40.544Z,56.20
2023-05-12T22:01:09.705Z,56.00
2023-05-12T22:03:38.748Z,55.90
2023-05-12T22:06:08.345Z,55.70
2023-05-12T22:08:37.255Z,55.70
2023-05-12T22:11:08.036Z,55.40
2023-05-12T22:13:36.977Z,55.30
2023-05-12T22:16:06.809Z,55.50
2023-05-12T22:18:37.153Z,55.30
2023-05-12T22:21:06.121Z,55.50
2023-05-12T22:23:35.101Z,55.60
2023-05-12T22:26:04.231Z,55.50
2023-05-12T22:28:34.674Z,55.50
2023-05-12T22:31:05.500Z,55.60
2023-05-12T22:33:35.737Z,55.70
2023-05-12T22:36:05.057Z,55.60
2023-05-12T22:38:34.120Z,55.90
2023-05-12T22:41:03.198Z,56.10
2023-05-12T22:43:32.290Z,56.20
2023-05-12T22:46:02.673Z,56.00
2023-05-12T22:48:35.963Z,56.20
2023-05-12T22:51:07.809Z,56.10
2023-05-12T22:53:37.109Z,56.50
2023-05-12T22:56:06.672Z,55.90
2023-05-12T22:58:35.729Z,56.20
2023-05-12T23:01:06.360Z,56.10
2023-05-12T23:03:35.354Z,56.40
2023-05-12T23:06:04.369Z,56.20
2023-05-12T23:08:33.230Z,56.80
2023-05-12T23:11:02.208Z,56.10
2023-05-12T23:13:31.345Z,56.10
2023-05-12T23:16:00.315Z,56.30
2023-05-12T23:18:31.993Z,56.10
2023-05-12T23:21:00.920Z,56.30
2023-05-12T23:23:29.880Z,56.20
2023-05-12T23:25:58.966Z,56.40
2023-05-12T23:28:27.890Z,56.30
2023-05-12T23:30:57.106Z,56.40
2023-05-12T23:33:26.307Z,56.20
2023-05-12T23:35:56.646Z,56.20
2023-05-12T23:38:25.575Z,56.30
2023-05-12T23:40:54.858Z,56.50
2023-05-12T23:43:23.900Z,56.50
2023-05-12T23:45:53.538Z,56.50
2023-05-12T23:48:22.746Z,56.40
2023-05-12T23:50:51.902Z,56.30
2023-05-12T23:53:22.252Z,56.20
2023-05-12T23:55:51.098Z,56.40
2023-05-12T23:58:20.254Z,56.50
